createdAt,value
2017-10-28T00:00:47.549Z,1020.16
2017-10-28T00:01:47.531Z,1020.11
2017-10-28T00:02:47.514Z,1020.13
2017-10-28T00:03:47.494Z,1020.12
2017-10-28T00:04:47.470Z,1020.06
2017-10-28T00:05:47.448Z,1020.04
2017-10-28T00:06:47.435Z,1019.96
2017-10-28T00:07:47.409Z,1019.95
2017-10-28T00:08:47.393Z,1019.94
2017-10-28T00:09:47.375Z,1019.96
2017-10-28T00:10:47.373Z,1019.99
2017-10-28T00:11:47.350Z,1019.95
2017-10-28T00:12:47.314Z,1019.95
2017-10-28T00:13:47.288Z,1019.97
2017-10-28T00:14:47.271Z,1019.98
2017-10-28T00:15:47.249Z,1019.96
2017-10-28T00:16:47.231Z,1019.94
2017-10-28T00:17:47.210Z,1020.02
2017-10-28T00:18:47.188Z,1020.05
2017-10-28T00:19:47.172Z,1020.02
2017-10-28T00:20:47.153Z,1020.01
2017-10-28T00:21:47.131Z,1019.93
2017-10-28T00:22:47.111Z,1019.93
2017-10-28T00:23:47.091Z,1019.87
2017-10-28T00:24:47.072Z,1019.86
2017-10-28T00:25:47.053Z,1019.84
2017-10-28T00:26:47.033Z,1019.84
2017-10-28T00:27:47.012Z,1019.77
2017-10-28T00:28:46.995Z,1019.73
2017-10-28T00:29:46.972Z,1019.65
2017-10-28T00:30:46.955Z,1019.64
2017-10-28T00:31:46.947Z,1019.6
2017-10-28T00:32:46.913Z,1019.58
2017-10-28T00:33:46.895Z,1019.56
2017-10-28T00:34:46.873Z,1019.56
2017-10-28T00:35:46.858Z,1019.53
2017-10-28T00:36:46.845Z,1019.47
2017-10-28T00:37:46.816Z,1019.47
2017-10-28T00:38:46.795Z,1019.48
2017-10-28T00:39:46.785Z,1019.43
2017-10-28T00:40:46.760Z,1019.44
2017-10-28T00:41:46.732Z,1019.45
2017-10-28T00:42:46.724Z,1019.5
2017-10-28T00:43:46.692Z,1019.47
2017-10-28T00:44:46.762Z,1019.55
2017-10-28T00:45:46.652Z,1019.49
2017-10-28T00:46:46.713Z,1019.57
2017-10-28T00:47:46.613Z,1019.53
2017-10-28T00:48:46.604Z,1019.54
2017-10-28T00:49:46.573Z,1019.52
2017-10-28T00:50:46.557Z,1019.49
2017-10-28T00:51:46.532Z,1019.46
2017-10-28T00:52:46.516Z,1019.37
2017-10-28T00:53:46.492Z,1019.45
2017-10-28T00:54:46.472Z,1019.44
2017-10-28T00:55:46.453Z,1019.37
2017-10-28T00:56:46.435Z,1019.41
2017-10-28T00:57:46.411Z,1019.34
2017-10-28T00:58:46.392Z,1019.31
2017-10-28T00:59:46.373Z,1019.21
2017-10-28T01:00:46.352Z,1019.23
2017-10-28T01:01:46.331Z,1019.23
2017-10-28T01:02:46.311Z,1019.18
2017-10-28T01:03:46.295Z,1019.21
2017-10-28T01:04:46.281Z,1019.21
2017-10-28T01:05:46.253Z,1019.21
2017-10-28T01:06:46.234Z,1019.12
2017-10-28T01:07:46.212Z,1019.11
2017-10-28T01:08:46.197Z,1019.1
2017-10-28T01:09:46.179Z,1018.94
2017-10-28T01:10:46.155Z,1018.93
2017-10-28T01:11:46.140Z,1018.88
2017-10-28T01:12:46.116Z,1018.86
2017-10-28T01:13:46.090Z,1018.84
2017-10-28T01:14:46.111Z,1018.92
2017-10-28T01:15:46.054Z,1018.93
2017-10-28T01:16:46.145Z,1018.88
2017-10-28T01:17:46.012Z,1018.87
2017-10-28T01:18:46.001Z,1018.88
2017-10-28T01:19:45.970Z,1018.88
2017-10-28T01:20:45.956Z,1018.85
2017-10-28T01:21:45.933Z,1018.92
2017-10-28T01:22:45.911Z,1018.91
2017-10-28T01:23:45.895Z,1018.9
2017-10-28T01:24:45.871Z,1018.92
2017-10-28T01:25:45.860Z,1018.88
2017-10-28T01:26:45.831Z,1018.82
2017-10-28T01:27:45.806Z,1018.88
2017-10-28T01:28:45.792Z,1018.85
2017-10-28T01:29:45.772Z,1018.84
2017-10-28T01:30:45.756Z,1018.84
2017-10-28T01:31:45.729Z,1018.77
2017-10-28T01:32:45.715Z,1018.64
2017-10-28T01:33:45.694Z,1018.59
2017-10-28T01:34:45.672Z,1018.5
2017-10-28T01:35:45.649Z,1018.56
2017-10-28T01:36:45.633Z,1018.51
2017-10-28T01:37:45.624Z,1018.49
2017-10-28T01:38:45.589Z,1018.45
2017-10-28T01:39:45.572Z,1018.43
2017-10-28T01:40:45.561Z,1018.36
2017-10-28T01:41:45.534Z,1018.39
2017-10-28T01:42:45.515Z,1018.47
2017-10-28T01:43:45.511Z,1018.51
2017-10-28T01:44:45.483Z,1018.45
2017-10-28T01:45:45.450Z,1018.45
2017-10-28T01:46:45.433Z,1018.41
2017-10-28T01:47:45.410Z,1018.41
2017-10-28T01:48:45.400Z,1018.34
2017-10-28T01:49:45.371Z,1018.39
2017-10-28T01:50:45.350Z,1018.35
2017-10-28T01:51:45.332Z,1018.36
2017-10-28T01:52:45.307Z,1018.33
2017-10-28T01:53:45.292Z,1018.31
2017-10-28T01:54:45.287Z,1018.24
2017-10-28T01:55:45.253Z,1018.24
2017-10-28T01:56:45.231Z,1018.21
2017-10-28T01:57:45.213Z,1018.21
2017-10-28T01:58:45.191Z,1018.15
2017-10-28T01:59:45.165Z,1018.1
2017-10-28T02:00:45.154Z,1018.16
2017-10-28T02:01:45.128Z,1018.09
2017-10-28T02:02:45.114Z,1018.13
2017-10-28T02:03:45.089Z,1018.11
2017-10-28T02:04:45.074Z,1018.04
2017-10-28T02:05:45.051Z,1017.96
2017-10-28T02:06:45.027Z,1017.94
2017-10-28T02:07:45.013Z,1017.9
2017-10-28T02:08:44.993Z,1017.93
2017-10-28T02:09:44.973Z,1017.9
2017-10-28T02:10:44.949Z,1017.84
2017-10-28T02:11:44.925Z,1017.86
2017-10-28T02:12:44.909Z,1017.82
2017-10-28T02:13:44.884Z,1017.83
2017-10-28T02:14:44.867Z,1017.82
2017-10-28T02:15:44.852Z,1017.84
2017-10-28T02:16:44.839Z,1017.84
2017-10-28T02:17:44.813Z,1017.84
2017-10-28T02:18:44.805Z,1017.82
2017-10-28T02:19:44.779Z,1017.83
2017-10-28T02:20:44.750Z,1017.77
2017-10-28T02:21:44.728Z,1017.74
2017-10-28T02:22:44.713Z,1017.81
2017-10-28T02:23:44.684Z,1017.81
2017-10-28T02:24:44.664Z,1017.78
2017-10-28T02:25:44.650Z,1017.74
2017-10-28T02:26:44.633Z,1017.7
2017-10-28T02:27:44.610Z,1017.71
2017-10-28T02:28:44.586Z,1017.71
2017-10-28T02:29:44.570Z,1017.67
2017-10-28T02:30:44.549Z,1017.69
2017-10-28T02:31:44.526Z,1017.62
2017-10-28T02:32:44.509Z,1017.5
2017-10-28T02:33:44.486Z,1017.48
2017-10-28T02:34:44.470Z,1017.47
2017-10-28T02:35:44.444Z,1017.46
2017-10-28T02:36:44.428Z,1017.43
2017-10-28T02:37:44.406Z,1017.44
2017-10-28T02:38:44.388Z,1017.37
2017-10-28T02:39:44.368Z,1017.42
2017-10-28T02:40:44.343Z,1017.39
2017-10-28T02:41:44.325Z,1017.39
2017-10-28T02:42:44.317Z,1017.42
2017-10-28T02:43:44.282Z,1017.37
2017-10-28T02:44:44.271Z,1017.33
2017-10-28T02:45:44.246Z,1017.29
2017-10-28T02:46:44.225Z,1017.18
2017-10-28T02:47:44.207Z,1017.17
2017-10-28T02:48:44.183Z,1017.09
2017-10-28T02:49:44.173Z,1017.05
2017-10-28T02:50:44.145Z,1017.02
2017-10-28T02:51:44.129Z,1017.14
2017-10-28T02:52:44.103Z,1017.14
2017-10-28T02:53:44.083Z,1017.15
2017-10-28T02:54:44.072Z,1017.16
2017-10-28T02:55:44.042Z,1017.19
2017-10-28T02:56:44.025Z,1017.2
2017-10-28T02:57:44.001Z,1017.18
2017-10-28T02:58:43.978Z,1017.21
2017-10-28T02:59:43.963Z,1017.2
2017-10-28T03:00:43.940Z,1017.24
2017-10-28T03:01:43.921Z,1017.2
2017-10-28T03:02:43.900Z,1017.14
2017-10-28T03:03:43.884Z,1017.01
2017-10-28T03:04:43.863Z,1016.99
2017-10-28T03:05:43.837Z,1016.99
2017-10-28T03:06:43.820Z,1017
2017-10-28T03:07:43.800Z,1016.93
2017-10-28T03:08:43.785Z,1016.92
2017-10-28T03:09:43.765Z,1016.83
2017-10-28T03:10:43.739Z,1016.73
2017-10-28T03:11:43.717Z,1016.74
2017-10-28T03:12:43.699Z,1016.69
2017-10-28T03:13:43.675Z,1016.77
2017-10-28T03:14:43.658Z,1016.8
2017-10-28T03:15:43.640Z,1016.88
2017-10-28T03:16:43.613Z,1016.91
2017-10-28T03:17:43.597Z,1016.86
2017-10-28T03:18:43.575Z,1016.88
2017-10-28T03:19:43.553Z,1016.75
2017-10-28T03:20:43.532Z,1016.76
2017-10-28T03:21:43.512Z,1016.74
2017-10-28T03:22:43.490Z,1016.72
2017-10-28T03:23:43.475Z,1016.68
2017-10-28T03:24:43.457Z,1016.59
2017-10-28T03:25:43.433Z,1016.61
2017-10-28T03:26:43.411Z,1016.52
2017-10-28T03:27:43.392Z,1016.51
2017-10-28T03:28:43.379Z,1016.53
2017-10-28T03:29:43.351Z,1016.5
2017-10-28T03:30:43.334Z,1016.43
2017-10-28T03:31:43.307Z,1016.37
2017-10-28T03:32:43.294Z,1016.31
2017-10-28T03:33:43.273Z,1016.35
2017-10-28T03:34:43.246Z,1016.38
2017-10-28T03:35:43.229Z,1016.4
2017-10-28T03:36:43.202Z,1016.45
2017-10-28T03:37:43.184Z,1016.4
2017-10-28T03:38:43.166Z,1016.37
2017-10-28T03:39:43.143Z,1016.3
2017-10-28T03:40:43.126Z,1016.35
2017-10-28T03:41:43.104Z,1016.37
2017-10-28T03:42:43.093Z,1016.35
2017-10-28T03:43:43.063Z,1016.4
2017-10-28T03:44:43.042Z,1016.4
2017-10-28T03:45:43.025Z,1016.46
2017-10-28T03:46:43.004Z,1016.4
2017-10-28T03:47:42.978Z,1016.38
2017-10-28T03:48:42.956Z,1016.28
2017-10-28T03:49:42.944Z,1016.25
2017-10-28T03:50:42.923Z,1016.17
2017-10-28T03:51:42.902Z,1016.31
2017-10-28T03:52:42.885Z,1016.35
2017-10-28T03:53:42.863Z,1016.28
2017-10-28T03:54:42.833Z,1016.34
2017-10-28T03:55:42.813Z,1016.21
2017-10-28T03:56:42.793Z,1016.19
2017-10-28T03:57:42.782Z,1016.12
2017-10-28T03:58:42.753Z,1016.1
2017-10-28T03:59:42.733Z,1016.13
2017-10-28T04:00:42.713Z,1016.14
2017-10-28T04:01:42.693Z,1016.28
2017-10-28T04:02:42.671Z,1016.19
2017-10-28T04:03:42.648Z,1016.16
2017-10-28T04:04:42.627Z,1016.07
2017-10-28T04:05:42.608Z,1016.02
2017-10-28T04:06:42.590Z,1016
2017-10-28T04:07:42.573Z,1016.05
2017-10-28T04:08:42.544Z,1016.08
2017-10-28T04:09:42.535Z,1016.09
2017-10-28T04:10:42.504Z,1016.18
2017-10-28T04:11:42.483Z,1016.12
2017-10-28T04:12:42.465Z,1015.95
2017-10-28T04:13:42.438Z,1015.86
2017-10-28T04:14:42.422Z,1015.8
2017-10-28T04:15:42.401Z,1015.75
2017-10-28T04:16:42.385Z,1015.73
2017-10-28T04:17:42.363Z,1015.63
2017-10-28T04:18:42.336Z,1015.65
2017-10-28T04:19:42.315Z,1015.62
2017-10-28T04:20:42.294Z,1015.67
2017-10-28T04:21:42.273Z,1015.69
2017-10-28T04:22:42.253Z,1015.71
2017-10-28T04:23:42.234Z,1015.7
2017-10-28T04:24:42.213Z,1015.68
2017-10-28T04:25:42.193Z,1015.75
2017-10-28T04:26:42.174Z,1015.76
2017-10-28T04:27:42.153Z,1015.77
2017-10-28T04:28:42.134Z,1015.79
2017-10-28T04:29:42.112Z,1015.74
2017-10-28T04:30:42.096Z,1015.69
2017-10-28T04:31:42.071Z,1015.73
2017-10-28T04:32:42.045Z,1015.67
2017-10-28T04:33:42.035Z,1015.63
2017-10-28T04:34:42.009Z,1015.61
2017-10-28T04:35:41.993Z,1015.54
2017-10-28T04:36:41.963Z,1015.59
2017-10-28T04:37:41.943Z,1015.57
2017-10-28T04:38:41.925Z,1015.64
2017-10-28T04:39:41.903Z,1015.61
2017-10-28T04:40:41.886Z,1015.53
2017-10-28T04:41:41.863Z,1015.41
2017-10-28T04:42:41.842Z,1015.38
2017-10-28T04:43:41.818Z,1015.44
2017-10-28T04:44:41.797Z,1015.47
2017-10-28T04:45:41.789Z,1015.34
2017-10-28T04:46:41.756Z,1015.35
2017-10-28T04:47:41.746Z,1015.4
2017-10-28T04:48:41.731Z,1015.33
2017-10-28T04:49:41.697Z,1015.3
2017-10-28T04:50:41.672Z,1015.22
2017-10-28T04:51:41.653Z,1015.32
2017-10-28T04:52:41.634Z,1015.38
2017-10-28T04:53:41.609Z,1015.36
2017-10-28T04:54:41.591Z,1015.37
2017-10-28T04:55:41.572Z,1015.38
2017-10-28T04:56:41.552Z,1015.33
2017-10-28T04:57:41.534Z,1015.25
2017-10-28T04:58:41.510Z,1015.2
2017-10-28T04:59:41.491Z,1015.2
2017-10-28T05:00:41.474Z,1015.2
2017-10-28T05:01:41.442Z,1015.13
2017-10-28T05:02:41.424Z,1015.1
2017-10-28T05:03:41.402Z,1015.07
2017-10-28T05:04:41.383Z,1015.16
2017-10-28T05:05:41.362Z,1015.16
2017-10-28T05:06:41.345Z,1015.07
2017-10-28T05:07:41.320Z,1015.13
2017-10-28T05:08:41.299Z,1015.11
2017-10-28T05:09:41.278Z,1015.07
2017-10-28T05:10:41.262Z,1015.04
2017-10-28T05:11:41.241Z,1015.03
2017-10-28T05:12:41.216Z,1015.01
2017-10-28T05:13:41.192Z,1014.94
2017-10-28T05:14:41.175Z,1014.95
2017-10-28T05:15:41.151Z,1014.95
2017-10-28T05:16:41.136Z,1014.91
2017-10-28T05:17:41.115Z,1014.77
2017-10-28T05:18:41.094Z,1014.76
2017-10-28T05:19:41.122Z,1014.73
2017-10-28T05:20:41.048Z,1014.78
2017-10-28T05:21:41.029Z,1014.74
2017-10-28T05:22:41.010Z,1014.66
2017-10-28T05:23:40.987Z,1014.71
2017-10-28T05:24:40.965Z,1014.71
2017-10-28T05:25:40.943Z,1014.76
2017-10-28T05:26:40.924Z,1014.74
2017-10-28T05:27:40.904Z,1014.76
2017-10-28T05:28:40.884Z,1014.64
2017-10-28T05:29:40.863Z,1014.69
2017-10-28T05:30:40.841Z,1014.64
2017-10-28T05:31:40.823Z,1014.62
2017-10-28T05:32:40.803Z,1014.58
2017-10-28T05:33:40.775Z,1014.59
2017-10-28T05:34:40.763Z,1014.53
2017-10-28T05:35:40.735Z,1014.45
2017-10-28T05:36:40.717Z,1014.42
2017-10-28T05:37:40.693Z,1014.38
2017-10-28T05:38:40.673Z,1014.37
2017-10-28T05:39:40.649Z,1014.26
2017-10-28T05:40:40.631Z,1014.33
2017-10-28T05:41:40.613Z,1014.35
2017-10-28T05:42:40.585Z,1014.2
2017-10-28T05:43:40.577Z,1014.21
2017-10-28T05:44:40.551Z,1014.19
2017-10-28T05:45:40.523Z,1014.21
2017-10-28T05:46:40.524Z,1014.31
2017-10-28T05:47:40.483Z,1014.2
2017-10-28T05:48:40.463Z,1014.23
2017-10-28T05:49:40.440Z,1014.13
2017-10-28T05:50:40.420Z,1014.09
2017-10-28T05:51:40.416Z,1014.1
2017-10-28T05:52:40.374Z,1013.97
2017-10-28T05:53:40.352Z,1013.94
2017-10-28T05:54:40.338Z,1013.78
2017-10-28T05:55:40.316Z,1013.84
2017-10-28T05:56:40.292Z,1013.75
2017-10-28T05:57:40.274Z,1013.67
2017-10-28T05:58:40.253Z,1013.72
2017-10-28T05:59:40.229Z,1013.74
2017-10-28T06:00:40.209Z,1013.75
2017-10-28T06:01:40.193Z,1013.72
2017-10-28T06:02:40.170Z,1013.71
2017-10-28T06:03:40.145Z,1013.64
2017-10-28T06:04:40.125Z,1013.59
2017-10-28T06:05:40.102Z,1013.66
2017-10-28T06:06:40.083Z,1013.69
2017-10-28T06:07:40.076Z,1013.67
2017-10-28T06:08:40.045Z,1013.81
2017-10-28T06:09:40.023Z,1013.9
2017-10-28T06:10:40.000Z,1013.9
2017-10-28T06:11:39.982Z,1013.86
2017-10-28T06:12:39.958Z,1013.74
2017-10-28T06:13:39.935Z,1013.82
2017-10-28T06:14:39.912Z,1013.75
2017-10-28T06:15:39.893Z,1013.71
2017-10-28T06:16:39.873Z,1013.71
2017-10-28T06:17:39.851Z,1013.69
2017-10-28T06:18:39.830Z,1013.68
2017-10-28T06:19:39.810Z,1013.67
2017-10-28T06:20:39.794Z,1013.79
2017-10-28T06:21:39.768Z,1013.86
2017-10-28T06:22:39.744Z,1013.93
2017-10-28T06:23:39.729Z,1013.91
2017-10-28T06:24:39.703Z,1013.99
2017-10-28T06:25:39.682Z,1014.06
2017-10-28T06:26:39.661Z,1014.1
2017-10-28T06:27:39.643Z,1014.08
2017-10-28T06:28:39.621Z,1014.06
2017-10-28T06:29:39.599Z,1014.06
2017-10-28T06:30:39.578Z,1014.04
2017-10-28T06:31:39.564Z,1014.13
2017-10-28T06:32:39.540Z,1014.1
2017-10-28T06:33:39.524Z,1014.18
2017-10-28T06:34:39.495Z,1014.22
2017-10-28T06:35:39.476Z,1014.26
2017-10-28T06:36:39.462Z,1014.15
2017-10-28T06:37:39.433Z,1014.09
2017-10-28T06:38:39.414Z,1014.03
2017-10-28T06:39:39.442Z,1013.93
2017-10-28T06:40:39.373Z,1013.91
2017-10-28T06:41:39.356Z,1014
2017-10-28T06:42:39.329Z,1013.86
2017-10-28T06:43:39.313Z,1013.88
2017-10-28T06:44:39.289Z,1013.87
2017-10-28T06:45:39.344Z,1013.85
2017-10-28T06:46:39.254Z,1013.78
2017-10-28T06:47:39.304Z,1013.8
2017-10-28T06:48:39.202Z,1013.71
2017-10-28T06:49:39.283Z,1013.75
2017-10-28T06:50:39.164Z,1013.73
2017-10-28T06:51:39.143Z,1013.69
2017-10-28T06:52:39.118Z,1013.58
2017-10-28T06:53:39.105Z,1013.59
2017-10-28T06:54:39.083Z,1013.56
2017-10-28T06:55:39.066Z,1013.65
2017-10-28T06:56:39.036Z,1013.72
2017-10-28T06:57:39.022Z,1013.7
2017-10-28T06:58:39.007Z,1013.73
2017-10-28T06:59:38.980Z,1013.68
2017-10-28T07:00:38.961Z,1013.59
2017-10-28T07:01:38.939Z,1013.46
2017-10-28T07:02:38.912Z,1013.44
2017-10-28T07:03:38.890Z,1013.53
2017-10-28T07:04:38.869Z,1013.56
2017-10-28T07:05:38.861Z,1013.57
2017-10-28T07:06:38.833Z,1013.55
2017-10-28T07:07:38.816Z,1013.49
2017-10-28T07:08:38.790Z,1013.57
2017-10-28T07:09:38.867Z,1013.51
2017-10-28T07:10:38.745Z,1013.51
2017-10-28T07:11:38.785Z,1013.36
2017-10-28T07:12:38.701Z,1013.36
2017-10-28T07:13:38.735Z,1013.44
2017-10-28T07:14:38.660Z,1013.29
2017-10-28T07:15:38.753Z,1013.37
2017-10-28T07:16:38.621Z,1013.26
2017-10-28T07:17:38.711Z,1013.24
2017-10-28T07:18:38.580Z,1013.16
2017-10-28T07:19:38.568Z,1013.25
2017-10-28T07:20:38.536Z,1013.2
2017-10-28T07:21:38.526Z,1013.29
2017-10-28T07:22:38.499Z,1013.31
2017-10-28T07:23:38.486Z,1013.2
2017-10-28T07:24:38.456Z,1013.2
2017-10-28T07:25:38.433Z,1013.19
2017-10-28T07:26:38.415Z,1013.21
2017-10-28T07:27:38.393Z,1013.27
2017-10-28T07:28:38.369Z,1013.37
2017-10-28T07:29:38.355Z,1013.42
2017-10-28T07:30:38.337Z,1013.51
2017-10-28T07:31:38.309Z,1013.54
2017-10-28T07:32:38.284Z,1013.57
2017-10-28T07:33:38.269Z,1013.48
2017-10-28T07:34:38.245Z,1013.48
2017-10-28T07:35:38.223Z,1013.4
2017-10-28T07:36:38.201Z,1013.53
2017-10-28T07:37:38.184Z,1013.58
2017-10-28T07:38:38.164Z,1013.52
2017-10-28T07:39:38.151Z,1013.61
2017-10-28T07:40:38.120Z,1013.63
2017-10-28T07:41:38.103Z,1013.64
2017-10-28T07:42:38.079Z,1013.58
2017-10-28T07:43:38.060Z,1013.64
2017-10-28T07:44:38.043Z,1013.68
2017-10-28T07:45:38.023Z,1013.6
2017-10-28T07:46:37.991Z,1013.63
2017-10-28T07:47:38.001Z,1013.62
2017-10-28T07:48:37.952Z,1013.53
2017-10-28T07:49:37.936Z,1013.51
2017-10-28T07:50:37.914Z,1013.53
2017-10-28T07:51:37.891Z,1013.56
2017-10-28T07:52:37.873Z,1013.58
2017-10-28T07:53:37.859Z,1013.53
2017-10-28T07:54:37.832Z,1013.56
2017-10-28T07:55:37.814Z,1013.59
2017-10-28T07:56:37.794Z,1013.57
2017-10-28T07:57:37.771Z,1013.56
2017-10-28T07:58:37.747Z,1013.54
2017-10-28T07:59:37.732Z,1013.47
2017-10-28T08:00:37.706Z,1013.47
2017-10-28T08:01:37.689Z,1013.38
2017-10-28T08:02:37.663Z,1013.26
2017-10-28T08:03:37.642Z,1013.22
2017-10-28T08:04:37.625Z,1013.14
2017-10-28T08:05:37.602Z,1013.12
2017-10-28T08:06:37.583Z,1013.05
2017-10-28T08:07:37.563Z,1013.11
2017-10-28T08:08:37.553Z,1013.2
2017-10-28T08:09:37.524Z,1013.3
2017-10-28T08:10:37.502Z,1013.28
2017-10-28T08:11:37.480Z,1013.33
2017-10-28T08:12:37.458Z,1013.23
2017-10-28T08:13:37.441Z,1013.28
2017-10-28T08:14:37.420Z,1013.25
2017-10-28T08:15:37.402Z,1013.38
2017-10-28T08:16:37.383Z,1013.48
2017-10-28T08:17:37.360Z,1013.52
2017-10-28T08:18:37.335Z,1013.37
2017-10-28T08:19:37.312Z,1013.5
2017-10-28T08:20:37.300Z,1013.42
2017-10-28T08:21:37.273Z,1013.5
2017-10-28T08:22:37.254Z,1013.44
2017-10-28T08:23:37.236Z,1013.62
2017-10-28T08:24:37.212Z,1013.46
2017-10-28T08:25:37.193Z,1013.41
2017-10-28T08:26:37.184Z,1013.43
2017-10-28T08:27:37.154Z,1013.32
2017-10-28T08:28:37.135Z,1013.37
2017-10-28T08:29:37.113Z,1013.31
2017-10-28T08:30:37.105Z,1013.21
2017-10-28T08:31:37.074Z,1013.2
2017-10-28T08:32:37.047Z,1013.14
2017-10-28T08:33:37.031Z,1013.13
2017-10-28T08:34:37.014Z,1013.18
2017-10-28T08:35:36.987Z,1013.07
2017-10-28T08:36:36.970Z,1013.16
2017-10-28T08:37:36.945Z,1013.1
2017-10-28T08:38:36.922Z,1013.09
2017-10-28T08:39:36.904Z,1013.14
2017-10-28T08:40:36.882Z,1013.06
2017-10-28T08:41:36.865Z,1013.05
2017-10-28T08:42:36.849Z,1012.96
2017-10-28T08:43:36.822Z,1012.96
2017-10-28T08:44:36.802Z,1012.96
2017-10-28T08:45:36.791Z,1012.95
2017-10-28T08:46:36.762Z,1012.95
2017-10-28T08:47:36.741Z,1012.97
2017-10-28T08:48:36.726Z,1012.91
2017-10-28T08:49:36.703Z,1012.88
2017-10-28T08:50:36.683Z,1012.75
2017-10-28T08:51:36.663Z,1012.77
2017-10-28T08:52:36.655Z,1012.74
2017-10-28T08:53:36.617Z,1012.74
2017-10-28T08:54:36.600Z,1012.77
2017-10-28T08:55:36.582Z,1012.77
2017-10-28T08:56:36.568Z,1012.83
2017-10-28T08:57:36.549Z,1012.8
2017-10-28T08:58:36.525Z,1012.69
2017-10-28T08:59:36.504Z,1012.77
2017-10-28T09:00:36.483Z,1012.78
2017-10-28T09:01:36.457Z,1012.65
2017-10-28T09:02:36.446Z,1012.68
2017-10-28T09:03:36.416Z,1012.61
2017-10-28T09:04:36.403Z,1012.66
2017-10-28T09:05:36.372Z,1012.63
2017-10-28T09:06:36.353Z,1012.61
2017-10-28T09:07:36.342Z,1012.54
2017-10-28T09:08:36.313Z,1012.53
2017-10-28T09:09:36.290Z,1012.42
2017-10-28T09:10:36.275Z,1012.45
2017-10-28T09:11:36.259Z,1012.48
2017-10-28T09:12:36.236Z,1012.46
2017-10-28T09:13:36.209Z,1012.47
2017-10-28T09:14:36.217Z,1012.42
2017-10-28T09:15:36.174Z,1012.42
2017-10-28T09:16:36.150Z,1012.41
2017-10-28T09:17:36.124Z,1012.45
2017-10-28T09:18:36.107Z,1012.42
2017-10-28T09:19:36.085Z,1012.46
2017-10-28T09:20:36.065Z,1012.41
2017-10-28T09:21:36.048Z,1012.37
2017-10-28T09:22:36.021Z,1012.35
2017-10-28T09:23:36.011Z,1012.44
2017-10-28T09:24:35.981Z,1012.36
2017-10-28T09:25:35.962Z,1012.48
2017-10-28T09:26:35.945Z,1012.46
2017-10-28T09:27:35.925Z,1012.52
2017-10-28T09:28:35.899Z,1012.53
2017-10-28T09:29:35.874Z,1012.59
2017-10-28T09:30:35.856Z,1012.54
2017-10-28T09:31:35.838Z,1012.43
2017-10-28T09:32:35.813Z,1012.36
2017-10-28T09:33:35.797Z,1012.42
2017-10-28T09:34:35.777Z,1012.35
2017-10-28T09:35:35.753Z,1012.31
2017-10-28T09:36:35.739Z,1012.35
2017-10-28T09:37:35.714Z,1012.41
2017-10-28T09:38:35.694Z,1012.43
2017-10-28T09:39:35.677Z,1012.46
2017-10-28T09:40:35.651Z,1012.39
2017-10-28T09:41:35.635Z,1012.46
2017-10-28T09:42:35.613Z,1012.47
2017-10-28T09:43:35.593Z,1012.48
2017-10-28T09:44:35.574Z,1012.39
2017-10-28T09:45:35.554Z,1012.35
2017-10-28T09:46:35.532Z,1012.36
2017-10-28T09:47:35.534Z,1012.44
2017-10-28T09:48:35.490Z,1012.32
2017-10-28T09:49:35.472Z,1012.31
2017-10-28T09:50:35.456Z,1012.35
2017-10-28T09:51:35.428Z,1012.46
2017-10-28T09:52:35.406Z,1012.38
2017-10-28T09:53:35.388Z,1012.49
2017-10-28T09:54:35.369Z,1012.44
2017-10-28T09:55:35.359Z,1012.44
2017-10-28T09:56:35.325Z,1012.46
2017-10-28T09:57:35.303Z,1012.44
2017-10-28T09:58:35.295Z,1012.46
2017-10-28T09:59:35.263Z,1012.5
2017-10-28T10:00:35.243Z,1012.44
2017-10-28T10:01:35.224Z,1012.41
2017-10-28T10:02:35.215Z,1012.48
2017-10-28T10:03:35.190Z,1012.39
2017-10-28T10:04:35.164Z,1012.35
2017-10-28T10:05:35.143Z,1012.39
2017-10-28T10:06:35.122Z,1012.37
2017-10-28T10:07:35.117Z,1012.42
2017-10-28T10:08:35.086Z,1012.32
2017-10-28T10:09:35.074Z,1012.38
2017-10-28T10:10:35.044Z,1012.36
2017-10-28T10:11:35.025Z,1012.35
2017-10-28T10:12:35.004Z,1012.38
2017-10-28T10:13:34.988Z,1012.34
2017-10-28T10:14:34.964Z,1012.26
2017-10-28T10:15:34.938Z,1012.18
2017-10-28T10:16:34.924Z,1012.23
2017-10-28T10:17:34.906Z,1012.21
2017-10-28T10:18:34.879Z,1012.21
2017-10-28T10:19:34.869Z,1012.18
2017-10-28T10:20:34.836Z,1012.11
2017-10-28T10:21:34.813Z,1012.09
2017-10-28T10:22:34.804Z,1012.18
2017-10-28T10:23:34.800Z,1012.08
2017-10-28T10:24:34.767Z,1011.96
2017-10-28T10:25:34.737Z,1012.02
2017-10-28T10:26:34.724Z,1011.99
2017-10-28T10:27:34.694Z,1011.98
2017-10-28T10:28:34.677Z,1011.89
2017-10-28T10:29:34.662Z,1011.9
2017-10-28T10:30:34.635Z,1011.88
2017-10-28T10:31:34.613Z,1011.99
2017-10-28T10:32:34.592Z,1011.94
2017-10-28T10:33:34.588Z,1011.85
2017-10-28T10:34:34.555Z,1011.82
2017-10-28T10:35:34.543Z,1011.77
2017-10-28T10:36:34.516Z,1011.73
2017-10-28T10:37:34.492Z,1011.79
2017-10-28T10:38:34.474Z,1011.78
2017-10-28T10:39:34.460Z,1011.78
2017-10-28T10:40:34.434Z,1011.77
2017-10-28T10:41:34.414Z,1011.85
2017-10-28T10:42:34.389Z,1011.83
2017-10-28T10:43:34.378Z,1011.76
2017-10-28T10:44:34.351Z,1011.8
2017-10-28T10:45:34.332Z,1011.76
2017-10-28T10:46:34.310Z,1011.79
2017-10-28T10:47:34.293Z,1011.72
2017-10-28T10:48:34.277Z,1011.73
2017-10-28T10:49:34.247Z,1011.75
2017-10-28T10:50:34.227Z,1011.69
2017-10-28T10:51:34.211Z,1011.66
2017-10-28T10:52:34.195Z,1011.65
2017-10-28T10:53:34.171Z,1011.7
2017-10-28T10:54:34.151Z,1011.66
2017-10-28T10:55:34.137Z,1011.74
2017-10-28T10:56:34.105Z,1011.69
2017-10-28T10:57:34.099Z,1011.7
2017-10-28T10:58:34.067Z,1011.55
2017-10-28T10:59:34.053Z,1011.62
2017-10-28T11:00:34.034Z,1011.57
2017-10-28T11:01:34.010Z,1011.52
2017-10-28T11:02:33.986Z,1011.49
2017-10-28T11:03:33.971Z,1011.45
2017-10-28T11:04:33.943Z,1011.51
2017-10-28T11:05:33.932Z,1011.38
2017-10-28T11:06:33.913Z,1011.37
2017-10-28T11:07:33.883Z,1011.33
2017-10-28T11:08:33.863Z,1011.33
2017-10-28T11:09:33.844Z,1011.34
2017-10-28T11:10:33.824Z,1011.28
2017-10-28T11:11:33.799Z,1011.28
2017-10-28T11:12:33.782Z,1011.33
2017-10-28T11:13:33.765Z,1011.3
2017-10-28T11:14:33.753Z,1011.38
2017-10-28T11:15:33.735Z,1011.36
2017-10-28T11:16:33.705Z,1011.22
2017-10-28T11:17:33.683Z,1011.13
2017-10-28T11:18:33.666Z,1011.14
2017-10-28T11:19:33.647Z,1011.07
2017-10-28T11:20:33.625Z,1011.06
2017-10-28T11:21:33.611Z,1011.06
2017-10-28T11:22:33.588Z,1011.06
2017-10-28T11:23:33.564Z,1011.06
2017-10-28T11:24:33.544Z,1011.09
2017-10-28T11:25:33.526Z,1011.04
2017-10-28T11:26:33.506Z,1010.98
2017-10-28T11:27:33.518Z,1010.99
2017-10-28T11:28:33.519Z,1010.89
2017-10-28T11:29:33.454Z,1010.91
2017-10-28T11:30:33.426Z,1010.83
2017-10-28T11:31:33.422Z,1010.79
2017-10-28T11:32:33.385Z,1010.8
2017-10-28T11:33:33.362Z,1010.94
2017-10-28T11:34:33.405Z,1010.93
2017-10-28T11:35:33.329Z,1011.06
2017-10-28T11:36:33.305Z,1011.08
2017-10-28T11:37:33.283Z,1011.06
2017-10-28T11:38:33.263Z,1011.1
2017-10-28T11:39:33.253Z,1011
2017-10-28T11:40:33.222Z,1011.01
2017-10-28T11:41:33.215Z,1010.99
2017-10-28T11:42:33.183Z,1010.96
2017-10-28T11:43:33.163Z,1011.04
2017-10-28T11:44:33.157Z,1011.02
2017-10-28T11:45:33.120Z,1011.04
2017-10-28T11:46:33.114Z,1011
2017-10-28T11:47:33.085Z,1010.93
2017-10-28T11:48:33.065Z,1010.93
2017-10-28T11:49:33.081Z,1010.85
2017-10-28T11:50:33.025Z,1010.81
2017-10-28T11:51:33.007Z,1010.76
2017-10-28T11:52:32.984Z,1010.71
2017-10-28T11:53:32.963Z,1010.74
2017-10-28T11:54:32.945Z,1010.69
2017-10-28T11:55:32.926Z,1010.63
2017-10-28T11:56:32.898Z,1010.62
2017-10-28T11:57:32.882Z,1010.57
2017-10-28T11:58:32.864Z,1010.55
2017-10-28T11:59:32.845Z,1010.59
2017-10-28T12:00:32.823Z,1010.53
2017-10-28T12:01:32.804Z,1010.55
2017-10-28T12:02:32.782Z,1010.54
2017-10-28T12:03:32.760Z,1010.48
2017-10-28T12:04:32.756Z,1010.37
2017-10-28T12:05:32.724Z,1010.37
2017-10-28T12:06:32.716Z,1010.43
2017-10-28T12:07:32.678Z,1010.36
2017-10-28T12:08:32.667Z,1010.24